sensor_id;sensor_type;location;lat;lon;timestamp;P1;durP1;ratioP1;P2;durP2;ratioP2
70850;SDS011;58475;49.662;9.636;2023-09-08T00:01:37;1.45;;;0.88;;
70850;SDS011;58475;49.662;9.636;2023-09-08T00:04:03;0.95;;;0.88;;
70850;SDS011;58475;49.662;9.636;2023-09-08T00:06:29;1.02;;;0.82;;
70850;SDS011;58475;49.662;9.636;2023-09-08T00:08:54;0.80;;;0.70;;
70850;SDS011;58475;49.662;9.636;2023-09-08T00:11:20;0.65;;;0.65;;
70850;SDS011;58475;49.662;9.636;2023-09-08T00:13:46;0.75;;;0.75;;
70850;SDS011;58475;49.662;9.636;2023-09-08T00:16:11;0.52;;;0.52;;
70850;SDS011;58475;49.662;9.636;2023-09-08T00:18:37;1.08;;;0.77;;
70850;SDS011;58475;49.662;9.636;2023-09-08T00:21:02;0.70;;;0.70;;
70850;SDS011;58475;49.662;9.636;2023-09-08T00:23:28;0.98;;;0.90;;
70850;SDS011;58475;49.662;9.636;2023-09-08T00:25:53;1.40;;;0.90;;
70850;SDS011;58475;49.662;9.636;2023-09-08T00:28:19;0.98;;;0.88;;
70850;SDS011;58475;49.662;9.636;2023-09-08T00:30:45;1.55;;;1.05;;
70850;SDS011;58475;49.662;9.636;2023-09-08T00:33:10;0.63;;;0.63;;
70850;SDS011;58475;49.662;9.636;2023-09-08T00:35:38;1.05;;;0.80;;
70850;SDS011;58475;49.662;9.636;2023-09-08T00:38:03;1.00;;;0.82;;
70850;SDS011;58475;49.662;9.636;2023-09-08T00:40:29;0.93;;;0.75;;
70850;SDS011;58475;49.662;9.636;2023-09-08T00:42:54;1.00;;;0.82;;
70850;SDS011;58475;49.662;9.636;2023-09-08T00:45:27;1.13;;;0.90;;
70850;SDS011;58475;49.662;9.636;2023-09-08T00:48:17;0.60;;;0.60;;
70850;SDS011;58475;49.662;9.636;2023-09-08T00:50:43;0.65;;;0.65;;
70850;SDS011;58475;49.662;9.636;2023-09-08T00:53:10;0.88;;;0.75;;
70850;SDS011;58475;49.662;9.636;2023-09-08T00:55:36;0.65;;;0.65;;
70850;SDS011;58475;49.662;9.636;2023-09-08T00:58:02;0.95;;;0.70;;
70850;SDS011;58475;49.662;9.636;2023-09-08T01:00:28;0.80;;;0.80;;
70850;SDS011;58475;49.662;9.636;2023-09-08T01:02:54;0.73;;;0.73;;
70850;SDS011;58475;49.662;9.636;2023-09-08T01:05:40;0.63;;;0.63;;
70850;SDS011;58475;49.662;9.636;2023-09-08T01:08:06;0.43;;;0.43;;
70850;SDS011;58475;49.662;9.636;2023-09-08T01:10:33;1.00;;;0.95;;
70850;SDS011;58475;49.662;9.636;2023-09-08T01:12:59;0.73;;;0.73;;
70850;SDS011;58475;49.662;9.636;2023-09-08T01:15:25;1.27;;;0.70;;
70850;SDS011;58475;49.662;9.636;2023-09-08T01:17:51;0.95;;;0.73;;
70850;SDS011;58475;49.662;9.636;2023-09-08T01:25:21;0.60;;;0.60;;
70850;SDS011;58475;49.662;9.636;2023-09-08T01:27:55;0.77;;;0.77;;
70850;SDS011;58475;49.662;9.636;2023-09-08T01:30:23;0.55;;;0.55;;
70850;SDS011;58475;49.662;9.636;2023-09-08T01:32:51;0.88;;;0.85;;
70850;SDS011;58475;49.662;9.636;2023-09-08T01:35:19;1.10;;;0.77;;
70850;SDS011;58475;49.662;9.636;2023-09-08T01:37:45;0.80;;;0.68;;
70850;SDS011;58475;49.662;9.636;2023-09-08T01:40:12;1.70;;;0.85;;
70850;SDS011;58475;49.662;9.636;2023-09-08T01:42:38;0.60;;;0.60;;
70850;SDS011;58475;49.662;9.636;2023-09-08T01:45:06;0.60;;;0.60;;
70850;SDS011;58475;49.662;9.636;2023-09-08T01:47:32;0.82;;;0.80;;
70850;SDS011;58475;49.662;9.636;2023-09-08T01:49:58;1.30;;;0.90;;
70850;SDS011;58475;49.662;9.636;2023-09-08T01:52:24;0.60;;;0.60;;
70850;SDS011;58475;49.662;9.636;2023-09-08T01:54:50;0.55;;;0.55;;
70850;SDS011;58475;49.662;9.636;2023-09-08T01:57:16;0.60;;;0.60;;
70850;SDS011;58475;49.662;9.636;2023-09-08T01:59:42;0.60;;;0.60;;
70850;SDS011;58475;49.662;9.636;2023-09-08T02:02:08;0.70;;;0.70;;
70850;SDS011;58475;49.662;9.636;2023-09-08T02:04:33;0.60;;;0.60;;
70850;SDS011;58475;49.662;9.636;2023-09-08T02:06:59;0.80;;;0.73;;
70850;SDS011;58475;49.662;9.636;2023-09-08T02:09:31;0.60;;;0.60;;
70850;SDS011;58475;49.662;9.636;2023-09-08T02:11:57;0.63;;;0.63;;
70850;SDS011;58475;49.662;9.636;2023-09-08T02:14:23;0.57;;;0.57;;
70850;SDS011;58475;49.662;9.636;2023-09-08T02:16:50;0.63;;;0.52;;
70850;SDS011;58475;49.662;9.636;2023-09-08T02:19:16;0.73;;;0.73;;
70850;SDS011;58475;49.662;9.636;2023-09-08T02:21:41;0.60;;;0.60;;
70850;SDS011;58475;49.662;9.636;2023-09-08T02:24:07;1.17;;;0.90;;
70850;SDS011;58475;49.662;9.636;2023-09-08T02:26:32;1.35;;;0.85;;
70850;SDS011;58475;49.662;9.636;2023-09-08T02:28:59;0.73;;;0.57;;
70850;SDS011;58475;49.662;9.636;2023-09-08T02:31:26;0.90;;;0.70;;
70850;SDS011;58475;49.662;9.636;2023-09-08T02:33:52;0.70;;;0.70;;
70850;SDS011;58475;49.662;9.636;2023-09-08T02:36:18;1.27;;;0.55;;
70850;SDS011;58475;49.662;9.636;2023-09-08T02:38:53;0.70;;;0.70;;
70850;SDS011;58475;49.662;9.636;2023-09-08T02:41:20;0.50;;;0.50;;
70850;SDS011;58475;49.662;9.636;2023-09-08T02:43:46;0.85;;;0.82;;
70850;SDS011;58475;49.662;9.636;2023-09-08T02:46:12;0.50;;;0.50;;
70850;SDS011;58475;49.662;9.636;2023-09-08T02:48:38;1.45;;;0.95;;
70850;SDS011;58475;49.662;9.636;2023-09-08T02:51:04;0.63;;;0.60;;
70850;SDS011;58475;49.662;9.636;2023-09-08T02:53:30;0.52;;;0.52;;
70850;SDS011;58475;49.662;9.636;2023-09-08T02:55:56;0.57;;;0.47;;
70850;SDS011;58475;49.662;9.636;2023-09-08T02:58:22;1.10;;;0.70;;
70850;SDS011;58475;49.662;9.636;2023-09-08T03:00:48;0.75;;;0.75;;
70850;SDS011;58475;49.662;9.636;2023-09-08T03:03:15;0.60;;;0.60;;
70850;SDS011;58475;49.662;9.636;2023-09-08T03:05:41;0.40;;;0.40;;
70850;SDS011;58475;49.662;9.636;2023-09-08T03:08:07;0.75;;;0.70;;
70850;SDS011;58475;49.662;9.636;2023-09-08T03:10:33;0.75;;;0.65;;
70850;SDS011;58475;49.662;9.636;2023-09-08T03:13:05;1.38;;;0.80;;
70850;SDS011;58475;49.662;9.636;2023-09-08T03:15:31;0.80;;;0.60;;
70850;SDS011;58475;49.662;9.636;2023-09-08T03:17:58;0.60;;;0.60;;
70850;SDS011;58475;49.662;9.636;2023-09-08T03:20:24;0.50;;;0.50;;
70850;SDS011;58475;49.662;9.636;2023-09-08T03:22:54;0.60;;;0.60;;
70850;SDS011;58475;49.662;9.636;2023-09-08T03:25:20;1.00;;;0.90;;
70850;SDS011;58475;49.662;9.636;2023-09-08T03:27:46;1.10;;;0.88;;
70850;SDS011;58475;49.662;9.636;2023-09-08T03:30:12;0.68;;;0.68;;
70850;SDS011;58475;49.662;9.636;2023-09-08T03:32:38;0.52;;;0.50;;
70850;SDS011;58475;49.662;9.636;2023-09-08T03:35:04;0.70;;;0.70;;
70850;SDS011;58475;49.662;9.636;2023-09-08T03:37:34;0.32;;;0.32;;
70850;SDS011;58475;49.662;9.636;2023-09-08T03:40:00;0.50;;;0.50;;
70850;SDS011;58475;49.662;9.636;2023-09-08T03:42:26;0.63;;;0.63;;
70850;SDS011;58475;49.662;9.636;2023-09-08T03:44:52;0.82;;;0.70;;
70850;SDS011;58475;49.662;9.636;2023-09-08T03:47:17;0.65;;;0.65;;
70850;SDS011;58475;49.662;9.636;2023-09-08T03:49:43;0.73;;;0.52;;
70850;SDS011;58475;49.662;9.636;2023-09-08T03:52:08;0.55;;;0.55;;
70850;SDS011;58475;49.662;9.636;2023-09-08T03:54:34;0.47;;;0.47;;
70850;SDS011;58475;49.662;9.636;2023-09-08T03:56:59;0.68;;;0.68;;
70850;SDS011;58475;49.662;9.636;2023-09-08T03:59:25;0.52;;;0.50;;
70850;SDS011;58475;49.662;9.636;2023-09-08T04:01:50;0.75;;;0.70;;
70850;SDS011;58475;49.662;9.636;2023-09-08T04:04:16;0.73;;;0.73;;
70850;SDS011;58475;49.662;9.636;2023-09-08T04:06:43;1.27;;;0.65;;
70850;SDS011;58475;49.662;9.636;2023-09-08T04:09:08;0.77;;;0.70;;
70850;SDS011;58475;49.662;9.636;2023-09-08T04:11:34;0.60;;;0.60;;
70850;SDS011;58475;49.662;9.636;2023-09-08T04:14:00;0.73;;;0.73;;
70850;SDS011;58475;49.662;9.636;2023-09-08T04:16:26;0.65;;;0.65;;
70850;SDS011;58475;49.662;9.636;2023-09-08T04:18:51;1.00;;;0.73;;
70850;SDS011;58475;49.662;9.636;2023-09-08T04:21:17;1.60;;;0.73;;
70850;SDS011;58475;49.662;9.636;2023-09-08T04:23:42;0.57;;;0.57;;
70850;SDS011;58475;49.662;9.636;2023-09-08T04:26:08;0.47;;;0.45;;
70850;SDS011;58475;49.662;9.636;2023-09-08T04:28:33;0.75;;;0.63;;
70850;SDS011;58475;49.662;9.636;2023-09-08T04:30:59;0.93;;;0.90;;
70850;SDS011;58475;49.662;9.636;2023-09-08T04:33:25;0.70;;;0.70;;
70850;SDS011;58475;49.662;9.636;2023-09-08T04:35:51;0.50;;;0.50;;
70850;SDS011;58475;49.662;9.636;2023-09-08T04:38:17;0.80;;;0.80;;
70850;SDS011;58475;49.662;9.636;2023-09-08T04:40:44;0.60;;;0.60;;
70850;SDS011;58475;49.662;9.636;2023-09-08T04:43:10;0.85;;;0.73;;
70850;SDS011;58475;49.662;9.636;2023-09-08T04:45:36;0.60;;;0.60;;
70850;SDS011;58475;49.662;9.636;2023-09-08T04:48:02;0.60;;;0.60;;
70850;SDS011;58475;49.662;9.636;2023-09-08T04:50:29;0.85;;;0.60;;
70850;SDS011;58475;49.662;9.636;2023-09-08T04:52:55;0.68;;;0.68;;
70850;SDS011;58475;49.662;9.636;2023-09-08T04:55:20;0.50;;;0.50;;
70850;SDS011;58475;49.662;9.636;2023-09-08T04:57:47;0.40;;;0.40;;
70850;SDS011;58475;49.662;9.636;2023-09-08T05:00:12;0.60;;;0.60;;
70850;SDS011;58475;49.662;9.636;2023-09-08T05:02:38;0.57;;;0.57;;
70850;SDS011;58475;49.662;9.636;2023-09-08T05:05:05;0.50;;;0.50;;
70850;SDS011;58475;49.662;9.636;2023-09-08T05:07:30;0.77;;;0.70;;
70850;SDS011;58475;49.662;9.636;2023-09-08T05:09:56;0.60;;;0.60;;
70850;SDS011;58475;49.662;9.636;2023-09-08T05:12:22;0.75;;;0.73;;
70850;SDS011;58475;49.662;9.636;2023-09-08T05:14:47;1.08;;;0.80;;
70850;SDS011;58475;49.662;9.636;2023-09-08T05:17:13;0.55;;;0.55;;
70850;SDS011;58475;49.662;9.636;2023-09-08T05:19:38;0.60;;;0.60;;
70850;SDS011;58475;49.662;9.636;2023-09-08T05:22:05;0.60;;;0.60;;
70850;SDS011;58475;49.662;9.636;2023-09-08T05:24:34;0.80;;;0.75;;
70850;SDS011;58475;49.662;9.636;2023-09-08T05:27:00;0.68;;;0.68;;
70850;SDS011;58475;49.662;9.636;2023-09-08T05:29:26;0.93;;;0.82;;
70850;SDS011;58475;49.662;9.636;2023-09-08T05:31:52;0.98;;;0.80;;
70850;SDS011;58475;49.662;9.636;2023-09-08T05:34:18;0.70;;;0.70;;
70850;SDS011;58475;49.662;9.636;2023-09-08T05:36:44;0.50;;;0.50;;
70850;SDS011;58475;49.662;9.636;2023-09-08T05:39:09;0.45;;;0.45;;
70850;SDS011;58475;49.662;9.636;2023-09-08T05:41:35;0.93;;;0.90;;
70850;SDS011;58475;49.662;9.636;2023-09-08T05:44:02;0.70;;;0.70;;
70850;SDS011;58475;49.662;9.636;2023-09-08T05:46:27;0.85;;;0.73;;
70850;SDS011;58475;49.662;9.636;2023-09-08T05:48:53;0.77;;;0.77;;
70850;SDS011;58475;49.662;9.636;2023-09-08T05:51:19;0.60;;;0.60;;
70850;SDS011;58475;49.662;9.636;2023-09-08T05:53:45;0.88;;;0.88;;
70850;SDS011;58475;49.662;9.636;2023-09-08T05:56:11;1.60;;;1.05;;
70850;SDS011;58475;49.662;9.636;2023-09-08T05:58:39;1.45;;;0.82;;
70850;SDS011;58475;49.662;9.636;2023-09-08T06:01:05;1.38;;;1.00;;
70850;SDS011;58475;49.662;9.636;2023-09-08T06:03:33;0.85;;;0.75;;
70850;SDS011;58475;49.662;9.636;2023-09-08T06:05:59;0.77;;;0.77;;
70850;SDS011;58475;49.662;9.636;2023-09-08T06:08:24;0.82;;;0.82;;
70850;SDS011;58475;49.662;9.636;2023-09-08T06:10:50;1.77;;;1.10;;
70850;SDS011;58475;49.662;9.636;2023-09-08T06:13:16;0.70;;;0.70;;
70850;SDS011;58475;49.662;9.636;2023-09-08T06:15:42;2.47;;;1.13;;
70850;SDS011;58475;49.662;9.636;2023-09-08T06:18:10;1.10;;;1.00;;
70850;SDS011;58475;49.662;9.636;2023-09-08T06:20:43;0.70;;;0.70;;
70850;SDS011;58475;49.662;9.636;2023-09-08T06:23:09;0.85;;;0.85;;
70850;SDS011;58475;49.662;9.636;2023-09-08T06:25:35;1.10;;;1.00;;
70850;SDS011;58475;49.662;9.636;2023-09-08T06:28:01;1.90;;;1.23;;
70850;SDS011;58475;49.662;9.636;2023-09-08T06:30:26;1.50;;;0.98;;
70850;SDS011;58475;49.662;9.636;2023-09-08T06:32:52;1.00;;;0.90;;
70850;SDS011;58475;49.662;9.636;2023-09-08T06:35:21;0.70;;;0.70;;
70850;SDS011;58475;49.662;9.636;2023-09-08T06:37:47;1.00;;;0.90;;
70850;SDS011;58475;49.662;9.636;2023-09-08T06:40:13;2.05;;;1.30;;
70850;SDS011;58475;49.662;9.636;2023-09-08T06:42:38;1.58;;;1.08;;
70850;SDS011;58475;49.662;9.636;2023-09-08T06:45:12;1.85;;;1.13;;
70850;SDS011;58475;49.662;9.636;2023-09-08T06:47:38;0.85;;;0.85;;
70850;SDS011;58475;49.662;9.636;2023-09-08T06:50:04;1.00;;;0.90;;
70850;SDS011;58475;49.662;9.636;2023-09-08T06:52:30;1.60;;;1.00;;
70850;SDS011;58475;49.662;9.636;2023-09-08T06:54:57;1.63;;;1.13;;
70850;SDS011;58475;49.662;9.636;2023-09-08T06:57:23;1.83;;;1.23;;
70850;SDS011;58475;49.662;9.636;2023-09-08T06:59:49;1.38;;;1.08;;
70850;SDS011;58475;49.662;9.636;2023-09-08T07:02:14;2.42;;;1.23;;
70850;SDS011;58475;49.662;9.636;2023-09-08T07:04:40;1.83;;;1.30;;
70850;SDS011;58475;49.662;9.636;2023-09-08T07:07:06;1.70;;;1.27;;
70850;SDS011;58475;49.662;9.636;2023-09-08T07:09:34;1.77;;;1.40;;
70850;SDS011;58475;49.662;9.636;2023-09-08T07:12:01;2.15;;;1.40;;
70850;SDS011;58475;49.662;9.636;2023-09-08T07:14:27;2.33;;;1.25;;
70850;SDS011;58475;49.662;9.636;2023-09-08T07:16:53;2.28;;;1.30;;
70850;SDS011;58475;49.662;9.636;2023-09-08T07:19:18;2.25;;;1.40;;
70850;SDS011;58475;49.662;9.636;2023-09-08T07:21:44;1.75;;;1.13;;
70850;SDS011;58475;49.662;9.636;2023-09-08T07:24:10;2.67;;;1.42;;
70850;SDS011;58475;49.662;9.636;2023-09-08T07:26:35;2.35;;;1.40;;
70850;SDS011;58475;49.662;9.636;2023-09-08T07:29:01;1.30;;;0.98;;
70850;SDS011;58475;49.662;9.636;2023-09-08T07:31:27;2.55;;;1.50;;
70850;SDS011;58475;49.662;9.636;2023-09-08T07:33:52;1.70;;;1.17;;
70850;SDS011;58475;49.662;9.636;2023-09-08T07:36:18;2.08;;;1.35;;
70850;SDS011;58475;49.662;9.636;2023-09-08T07:38:44;3.17;;;1.48;;
70850;SDS011;58475;49.662;9.636;2023-09-08T07:41:10;1.65;;;1.17;;
70850;SDS011;58475;49.662;9.636;2023-09-08T07:43:36;2.13;;;1.35;;
70850;SDS011;58475;49.662;9.636;2023-09-08T07:46:06;2.30;;;1.45;;
70850;SDS011;58475;49.662;9.636;2023-09-08T07:48:32;1.23;;;1.10;;
70850;SDS011;58475;49.662;9.636;2023-09-08T07:50:58;2.22;;;1.35;;
70850;SDS011;58475;49.662;9.636;2023-09-08T07:53:25;2.30;;;1.38;;
70850;SDS011;58475;49.662;9.636;2023-09-08T07:55:51;2.22;;;1.30;;
70850;SDS011;58475;49.662;9.636;2023-09-08T07:58:17;2.42;;;1.45;;
70850;SDS011;58475;49.662;9.636;2023-09-08T08:00:43;2.90;;;1.52;;
70850;SDS011;58475;49.662;9.636;2023-09-08T08:03:08;2.00;;;1.40;;
70850;SDS011;58475;49.662;9.636;2023-09-08T08:05:34;2.60;;;1.55;;
70850;SDS011;58475;49.662;9.636;2023-09-08T08:07:59;4.03;;;1.73;;
70850;SDS011;58475;49.662;9.636;2023-09-08T08:10:30;2.63;;;1.58;;
70850;SDS011;58475;49.662;9.636;2023-09-08T08:12:57;2.38;;;1.45;;
70850;SDS011;58475;49.662;9.636;2023-09-08T08:15:33;2.47;;;1.45;;
70850;SDS011;58475;49.662;9.636;2023-09-08T08:18:00;3.05;;;1.63;;
70850;SDS011;58475;49.662;9.636;2023-09-08T08:20:26;2.80;;;1.55;;
70850;SDS011;58475;49.662;9.636;2023-09-08T08:22:51;2.53;;;1.58;;
70850;SDS011;58475;49.662;9.636;2023-09-08T08:25:17;2.00;;;1.30;;
70850;SDS011;58475;49.662;9.636;2023-09-08T08:27:42;2.33;;;1.35;;
70850;SDS011;58475;49.662;9.636;2023-09-08T08:30:08;2.33;;;1.58;;
70850;SDS011;58475;49.662;9.636;2023-09-08T08:32:34;3.13;;;1.70;;
70850;SDS011;58475;49.662;9.636;2023-09-08T08:35:00;2.80;;;1.77;;
70850;SDS011;58475;49.662;9.636;2023-09-08T08:37:25;3.60;;;1.63;;
70850;SDS011;58475;49.662;9.636;2023-09-08T08:39:51;3.42;;;1.80;;
70850;SDS011;58475;49.662;9.636;2023-09-08T08:42:19;3.00;;;1.50;;
70850;SDS011;58475;49.662;9.636;2023-09-08T08:44:47;3.03;;;1.73;;
70850;SDS011;58475;49.662;9.636;2023-09-08T08:47:13;2.97;;;1.70;;
70850;SDS011;58475;49.662;9.636;2023-09-08T08:49:39;2.35;;;1.48;;
70850;SDS011;58475;49.662;9.636;2023-09-08T08:52:07;2.65;;;1.50;;
70850;SDS011;58475;49.662;9.636;2023-09-08T08:54:40;2.92;;;1.48;;
70850;SDS011;58475;49.662;9.636;2023-09-08T08:57:09;2.55;;;1.60;;
70850;SDS011;58475;49.662;9.636;2023-09-08T08:59:34;2.10;;;1.40;;
70850;SDS011;58475;49.662;9.636;2023-09-08T09:02:01;2.53;;;1.63;;
70850;SDS011;58475;49.662;9.636;2023-09-08T09:04:31;2.25;;;1.40;;
70850;SDS011;58475;49.662;9.636;2023-09-08T09:06:58;3.53;;;1.60;;
70850;SDS011;58475;49.662;9.636;2023-09-08T09:09:25;2.05;;;1.30;;
70850;SDS011;58475;49.662;9.636;2023-09-08T09:11:50;2.70;;;1.67;;
70850;SDS011;58475;49.662;9.636;2023-09-08T09:14:16;2.35;;;1.50;;
70850;SDS011;58475;49.662;9.636;2023-09-08T09:16:43;2.55;;;1.63;;
70850;SDS011;58475;49.662;9.636;2023-09-08T09:19:09;2.63;;;1.40;;
70850;SDS011;58475;49.662;9.636;2023-09-08T09:21:45;3.40;;;1.77;;
70850;SDS011;58475;49.662;9.636;2023-09-08T09:24:16;2.78;;;1.60;;
70850;SDS011;58475;49.662;9.636;2023-09-08T09:26:42;2.53;;;1.65;;
70850;SDS011;58475;49.662;9.636;2023-09-08T09:29:12;3.05;;;1.67;;
70850;SDS011;58475;49.662;9.636;2023-09-08T09:32:24;4.38;;;1.60;;
70850;SDS011;58475;49.662;9.636;2023-09-08T09:34:29;2.40;;;1.50;;
70850;SDS011;58475;49.662;9.636;2023-09-08T09:36:55;2.28;;;1.40;;
70850;SDS011;58475;49.662;9.636;2023-09-08T09:39:21;2.33;;;1.50;;
70850;SDS011;58475;49.662;9.636;2023-09-08T09:41:49;2.22;;;1.20;;
70850;SDS011;58475;49.662;9.636;2023-09-08T09:44:18;2.80;;;1.52;;
70850;SDS011;58475;49.662;9.636;2023-09-08T09:46:47;2.95;;;1.70;;
70850;SDS011;58475;49.662;9.636;2023-09-08T09:49:14;1.80;;;1.30;;
70850;SDS011;58475;49.662;9.636;2023-09-08T09:51:43;2.17;;;1.55;;
70850;SDS011;58475;49.662;9.636;2023-09-08T09:54:09;2.17;;;1.50;;
70850;SDS011;58475;49.662;9.636;2023-09-08T09:56:37;4.15;;;1.60;;
70850;SDS011;58475;49.662;9.636;2023-09-08T09:59:04;2.22;;;1.30;;
70850;SDS011;58475;49.662;9.636;2023-09-08T10:01:32;2.63;;;1.30;;
70850;SDS011;58475;49.662;9.636;2023-09-08T10:03:58;2.97;;;1.60;;
70850;SDS011;58475;49.662;9.636;2023-09-08T10:06:25;2.75;;;1.60;;
70850;SDS011;58475;49.662;9.636;2023-09-08T10:08:51;2.15;;;1.40;;
70850;SDS011;58475;49.662;9.636;2023-09-08T10:11:18;2.30;;;1.50;;
70850;SDS011;58475;49.662;9.636;2023-09-08T10:13:46;2.60;;;1.60;;
70850;SDS011;58475;49.662;9.636;2023-09-08T10:16:15;2.83;;;1.70;;
70850;SDS011;58475;49.662;9.636;2023-09-08T10:18:44;1.88;;;1.40;;
70850;SDS011;58475;49.662;9.636;2023-09-08T10:21:12;2.88;;;1.40;;
70850;SDS011;58475;49.662;9.636;2023-09-08T10:23:38;2.58;;;1.77;;
70850;SDS011;58475;49.662;9.636;2023-09-08T10:26:09;2.55;;;1.38;;
70850;SDS011;58475;49.662;9.636;2023-09-08T10:28:36;2.67;;;1.50;;
70850;SDS011;58475;49.662;9.636;2023-09-08T10:31:06;3.25;;;1.60;;
70850;SDS011;58475;49.662;9.636;2023-09-08T10:33:33;1.58;;;1.25;;
70850;SDS011;58475;49.662;9.636;2023-09-08T10:36:00;2.63;;;1.45;;
70850;SDS011;58475;49.662;9.636;2023-09-08T10:38:33;2.30;;;1.50;;
70850;SDS011;58475;49.662;9.636;2023-09-08T10:41:44;2.20;;;1.33;;
70850;SDS011;58475;49.662;9.636;2023-09-08T10:43:54;2.33;;;1.42;;
70850;SDS011;58475;49.662;9.636;2023-09-08T10:46:29;3.10;;;1.58;;
70850;SDS011;58475;49.662;9.636;2023-09-08T10:49:05;2.85;;;1.65;;
70850;SDS011;58475;49.662;9.636;2023-09-08T10:51:32;2.90;;;1.50;;
70850;SDS011;58475;49.662;9.636;2023-09-08T10:54:00;1.85;;;1.30;;
70850;SDS011;58475;49.662;9.636;2023-09-08T10:59:20;2.88;;;1.80;;
70850;SDS011;58475;49.662;9.636;2023-09-08T11:01:47;2.58;;;1.50;;
70850;SDS011;58475;49.662;9.636;2023-09-08T11:04:13;2.80;;;1.60;;
70850;SDS011;58475;49.662;9.636;2023-09-08T11:06:39;2.45;;;1.50;;
70850;SDS011;58475;49.662;9.636;2023-09-08T11:09:07;3.38;;;1.65;;
70850;SDS011;58475;49.662;9.636;2023-09-08T11:11:33;2.20;;;1.40;;
70850;SDS011;58475;49.662;9.636;2023-09-08T11:14:02;2.05;;;1.17;;
70850;SDS011;58475;49.662;9.636;2023-09-08T11:16:28;3.20;;;1.60;;
70850;SDS011;58475;49.662;9.636;2023-09-08T11:18:56;2.40;;;1.35;;
70850;SDS011;58475;49.662;9.636;2023-09-08T11:21:22;2.53;;;1.30;;
70850;SDS011;58475;49.662;9.636;2023-09-08T11:23:47;2.65;;;1.45;;
70850;SDS011;58475;49.662;9.636;2023-09-08T11:26:13;3.05;;;1.45;;
70850;SDS011;58475;49.662;9.636;2023-09-08T11:28:39;2.50;;;1.42;;
70850;SDS011;58475;49.662;9.636;2023-09-08T11:31:06;2.03;;;1.40;;
70850;SDS011;58475;49.662;9.636;2023-09-08T11:33:33;2.55;;;1.50;;
70850;SDS011;58475;49.662;9.636;2023-09-08T11:36:00;2.45;;;1.30;;
70850;SDS011;58475;49.662;9.636;2023-09-08T11:38:28;2.03;;;1.27;;
70850;SDS011;58475;49.662;9.636;2023-09-08T11:40:55;2.35;;;1.30;;
70850;SDS011;58475;49.662;9.636;2023-09-08T11:43:22;1.65;;;1.27;;
70850;SDS011;58475;49.662;9.636;2023-09-08T11:45:48;2.75;;;1.50;;
70850;SDS011;58475;49.662;9.636;2023-09-08T11:48:14;2.35;;;1.40;;
70850;SDS011;58475;49.662;9.636;2023-09-08T11:50:43;2.67;;;1.52;;
70850;SDS011;58475;49.662;9.636;2023-09-08T11:53:09;2.30;;;1.38;;
70850;SDS011;58475;49.662;9.636;2023-09-08T11:55:35;2.55;;;1.35;;
70850;SDS011;58475;49.662;9.636;2023-09-08T11:58:02;2.03;;;1.38;;
70850;SDS011;58475;49.662;9.636;2023-09-08T12:00:28;1.98;;;1.33;;
70850;SDS011;58475;49.662;9.636;2023-09-08T12:02:54;1.63;;;1.27;;
70850;SDS011;58475;49.662;9.636;2023-09-08T12:05:21;1.98;;;1.20;;
70850;SDS011;58475;49.662;9.636;2023-09-08T12:07:50;2.25;;;1.48;;
70850;SDS011;58475;49.662;9.636;2023-09-08T12:10:21;2.30;;;1.33;;
70850;SDS011;58475;49.662;9.636;2023-09-08T12:12:48;2.15;;;1.25;;
70850;SDS011;58475;49.662;9.636;2023-09-08T12:17:59;2.40;;;1.55;;
70850;SDS011;58475;49.662;9.636;2023-09-08T12:20:26;2.17;;;1.45;;
70850;SDS011;58475;49.662;9.636;2023-09-08T12:22:52;2.13;;;1.33;;
70850;SDS011;58475;49.662;9.636;2023-09-08T12:25:18;2.78;;;1.40;;
70850;SDS011;58475;49.662;9.636;2023-09-08T12:27:49;2.30;;;1.60;;
70850;SDS011;58475;49.662;9.636;2023-09-08T12:30:18;2.97;;;1.42;;
70850;SDS011;58475;49.662;9.636;2023-09-08T12:32:48;1.60;;;1.30;;
70850;SDS011;58475;49.662;9.636;2023-09-08T12:35:21;2.00;;;1.20;;
70850;SDS011;58475;49.662;9.636;2023-09-08T12:37:49;1.67;;;1.30;;
70850;SDS011;58475;49.662;9.636;2023-09-08T12:40:18;2.00;;;1.35;;
70850;SDS011;58475;49.662;9.636;2023-09-08T12:42:43;2.35;;;1.50;;
70850;SDS011;58475;49.662;9.636;2023-09-08T12:45:09;3.05;;;1.55;;
70850;SDS011;58475;49.662;9.636;2023-09-08T12:47:34;2.58;;;1.35;;
70850;SDS011;58475;49.662;9.636;2023-09-08T12:50:01;2.65;;;1.60;;
70850;SDS011;58475;49.662;9.636;2023-09-08T12:52:27;2.42;;;1.42;;
70850;SDS011;58475;49.662;9.636;2023-09-08T12:54:53;3.22;;;1.63;;
70850;SDS011;58475;49.662;9.636;2023-09-08T12:57:18;2.58;;;1.35;;
70850;SDS011;58475;49.662;9.636;2023-09-08T12:59:44;2.45;;;1.40;;
70850;SDS011;58475;49.662;9.636;2023-09-08T13:02:09;2.60;;;1.60;;
70850;SDS011;58475;49.662;9.636;2023-09-08T13:04:38;2.33;;;1.40;;
70850;SDS011;58475;49.662;9.636;2023-09-08T13:07:03;2.30;;;1.38;;
70850;SDS011;58475;49.662;9.636;2023-09-08T13:09:29;1.85;;;1.30;;
70850;SDS011;58475;49.662;9.636;2023-09-08T13:12:03;2.53;;;1.40;;
70850;SDS011;58475;49.662;9.636;2023-09-08T13:14:37;1.88;;;1.30;;
70850;SDS011;58475;49.662;9.636;2023-09-08T13:17:23;1.92;;;1.38;;
70850;SDS011;58475;49.662;9.636;2023-09-08T13:19:49;2.88;;;1.50;;
70850;SDS011;58475;49.662;9.636;2023-09-08T13:22:14;2.53;;;1.40;;
70850;SDS011;58475;49.662;9.636;2023-09-08T13:24:40;2.40;;;1.30;;
70850;SDS011;58475;49.662;9.636;2023-09-08T13:27:06;2.22;;;1.42;;
70850;SDS011;58475;49.662;9.636;2023-09-08T13:29:31;3.47;;;1.55;;
70850;SDS011;58475;49.662;9.636;2023-09-08T13:32:00;3.20;;;1.40;;
70850;SDS011;58475;49.662;9.636;2023-09-08T13:34:25;2.22;;;1.35;;
70850;SDS011;58475;49.662;9.636;2023-09-08T13:36:51;2.60;;;1.50;;
70850;SDS011;58475;49.662;9.636;2023-09-08T13:39:16;1.88;;;1.20;;
70850;SDS011;58475;49.662;9.636;2023-09-08T13:41:51;2.13;;;1.30;;
70850;SDS011;58475;49.662;9.636;2023-09-08T13:44:21;2.47;;;1.40;;
70850;SDS011;58475;49.662;9.636;2023-09-08T13:46:51;2.10;;;1.40;;
70850;SDS011;58475;49.662;9.636;2023-09-08T13:49:18;1.98;;;1.40;;
70850;SDS011;58475;49.662;9.636;2023-09-08T13:51:44;2.22;;;1.30;;
70850;SDS011;58475;49.662;9.636;2023-09-08T13:54:11;2.40;;;1.30;;
70850;SDS011;58475;49.662;9.636;2023-09-08T13:56:38;1.98;;;1.30;;
70850;SDS011;58475;49.662;9.636;2023-09-08T13:59:04;2.03;;;1.30;;
70850;SDS011;58475;49.662;9.636;2023-09-08T14:01:29;1.77;;;1.38;;
70850;SDS011;58475;49.662;9.636;2023-09-08T14:03:56;2.35;;;1.17;;
70850;SDS011;58475;49.662;9.636;2023-09-08T14:06:22;2.17;;;1.50;;
70850;SDS011;58475;49.662;9.636;2023-09-08T14:08:51;1.85;;;1.40;;
70850;SDS011;58475;49.662;9.636;2023-09-08T14:11:17;3.03;;;1.50;;
70850;SDS011;58475;49.662;9.636;2023-09-08T14:13:42;2.35;;;1.40;;
70850;SDS011;58475;49.662;9.636;2023-09-08T14:16:08;1.73;;;1.20;;
70850;SDS011;58475;49.662;9.636;2023-09-08T14:18:34;1.85;;;1.30;;
70850;SDS011;58475;49.662;9.636;2023-09-08T14:21:00;2.53;;;1.40;;
70850;SDS011;58475;49.662;9.636;2023-09-08T14:23:25;2.28;;;1.40;;
70850;SDS011;58475;49.662;9.636;2023-09-08T14:25:51;1.63;;;1.17;;
70850;SDS011;58475;49.662;9.636;2023-09-08T14:28:17;1.75;;;1.13;;
70850;SDS011;58475;49.662;9.636;2023-09-08T14:30:42;2.10;;;1.40;;
70850;SDS011;58475;49.662;9.636;2023-09-08T14:33:09;2.25;;;1.42;;
70850;SDS011;58475;49.662;9.636;2023-09-08T14:35:35;2.22;;;1.30;;
70850;SDS011;58475;49.662;9.636;2023-09-08T14:38:00;2.05;;;1.27;;
70850;SDS011;58475;49.662;9.636;2023-09-08T14:40:26;2.25;;;1.40;;
70850;SDS011;58475;49.662;9.636;2023-09-08T14:42:52;1.50;;;1.20;;
70850;SDS011;58475;49.662;9.636;2023-09-08T14:45:17;2.47;;;1.35;;
70850;SDS011;58475;49.662;9.636;2023-09-08T14:47:43;2.30;;;1.30;;
70850;SDS011;58475;49.662;9.636;2023-09-08T14:50:08;1.98;;;1.30;;
70850;SDS011;58475;49.662;9.636;2023-09-08T14:52:34;2.35;;;1.27;;
70850;SDS011;58475;49.662;9.636;2023-09-08T14:55:00;3.28;;;1.60;;
70850;SDS011;58475;49.662;9.636;2023-09-08T14:57:25;2.85;;;1.40;;